Time;durP1;ratioP1;P1;durP2;ratioP2;P2;SDS_P1;SDS_P2;PMS_P1;PMS_P2;Temp;Humidity;BMP_temperature;BMP_pressure;BME280_temperature;BME280_humidity;BME280_pressure;Samples;Min_cycle;Max_cycle;Signal;HPM_P1;HPM_P2
2023/06/05 00:01:58;;;;;;;;;;;;;;;18.12;79.31;100135.81;5091681;28;19916;-41
2023/06/05 00:04:23;;;;;;;;;;;;;;;18.41;77.26;100143.84;5091334;28;20026;-41
2023/06/05 00:06:50;;;;;;;;;;;;;;;18.07;78.16;100149.22;5091275;28;20320;-41
2023/06/05 00:09:15;;;;;;;;;;;;;;;17.72;80.59;100146.66;5090887;28;20356;-41
2023/06/05 00:11:41;;;;;;;;;;;;;;;17.94;79.08;100142.25;5090616;28;19919;-41
2023/06/05 00:14:08;;;;;;;;;;;;;;;17.63;79.58;100140.00;5090096;28;19912;-41
2023/06/05 00:16:33;;;;;;;;;;;;;;;17.83;79.29;100143.09;5091048;28;19912;-41
2023/06/05 00:18:59;;;;;;;;;;;;;;;18.23;77.05;100144.88;5091259;28;19919;-41
2023/06/05 00:21:25;;;;;;;;;;;;;;;18.06;76.99;100126.03;5091175;28;19945;-40
2023/06/05 00:23:50;;;;;;;;;;;;;;;18.01;77.78;100133.19;5091183;28;20050;-40
2023/06/05 00:26:15;;;;;;;;;;;;;;;18.31;76.11;100140.97;5091199;28;20003;-40
2023/06/05 00:28:40;;;;;;;;;;;;;;;18.39;75.19;100140.59;5091162;28;19916;-40
2023/06/05 00:31:06;;;;;;;;;;;;;;;18.58;73.89;100145.69;5090854;28;19924;-40
2023/06/05 00:33:31;;;;;;;;;;;;;;;18.21;75.22;100143.50;5090879;28;20376;-41
2023/06/05 00:35:57;;;;;;;;;;;;;;;18.36;74.64;100138.38;5091059;28;20359;-41
2023/06/05 00:38:22;;;;;;;;;;;;;;;18.31;74.39;100140.97;5091038;28;20364;-41
2023/06/05 00:40:47;;;;;;;;;;;;;;;18.12;75.21;100148.47;5090814;28;20014;-41
2023/06/05 00:43:13;;;;;;;;;;;;;;;18.58;73.08;100143.81;5090874;28;19923;-41
2023/06/05 00:45:38;;;;;;;;;;;;;;;18.25;73.71;100131.19;5090919;28;20297;-41
2023/06/05 00:48:03;;;;;;;;;;;;;;;17.86;74.86;100131.88;5091199;28;19919;-44
2023/06/05 00:50:32;;;;;;;;;;;;;;;17.87;74.84;100135.38;5090878;28;19912;-41
2023/06/05 00:52:57;;;;;;;;;;;;;;;18.29;72.92;100135.81;5090973;28;19944;-41
2023/06/05 00:55:23;;;;;;;;;;;;;;;18.51;71.84;100130.50;5090792;28;20316;-41
2023/06/05 00:57:48;;;;;;;;;;;;;;;18.48;72.01;100135.59;5091149;28;19923;-41
2023/06/05 01:00:14;;;;;;;;;;;;;;;18.41;72.21;100130.38;5090850;28;20386;-41
2023/06/05 01:02:40;;;;;;;;;;;;;;;18.46;72.40;100129.63;5090775;28;19940;-41
2023/06/05 01:05:06;;;;;;;;;;;;;;;18.27;72.81;100137.94;5090900;28;20015;-41
2023/06/05 01:07:34;;;;;;;;;;;;;;;18.40;72.08;100141.38;5090570;28;19955;-41
2023/06/05 01:10:03;;;;;;;;;;;;;;;18.42;72.98;100141.97;5090804;28;19992;-41
2023/06/05 01:12:50;;;;;;;;;;;;;;;18.56;71.22;100145.94;5090615;28;20015;-41
2023/06/05 01:15:18;;;;;;;;;;;;;;;18.82;70.62;100147.16;5090782;28;19916;-41
2023/06/05 01:17:47;;;;;;;;;;;;;;;18.73;70.49;100145.91;5090380;28;19920;-41
2023/06/05 01:20:12;;;;;;;;;;;;;;;18.59;71.18;100148.16;5090468;28;20010;-41
2023/06/05 01:22:37;;;;;;;;;;;;;;;18.48;71.54;100149.06;5093342;28;20019;-41
2023/06/05 01:25:07;;;;;;;;;;;;;;;18.64;70.78;100144.69;5094080;28;19916;-41
2023/06/05 01:27:46;;;;;;;;;;;;;;;18.41;71.35;100149.22;5094181;28;19913;-41
2023/06/05 01:30:19;;;;;;;;;;;;;;;18.47;71.00;100142.84;5093976;28;20038;-42
2023/06/05 01:33:02;;;;;;;;;;;;;;;18.41;71.21;100143.00;5094050;28;19912;-41
2023/06/05 01:35:27;;;;;;;;;;;;;;;18.48;70.36;100157.13;5089883;28;19938;-41
2023/06/05 01:37:54;;;;;;;;;;;;;;;18.34;70.40;100156.66;5093210;28;20292;-41
2023/06/05 01:40:21;;;;;;;;;;;;;;;18.36;70.25;100149.16;5094253;28;19956;-41
2023/06/05 01:42:47;;;;;;;;;;;;;;;18.28;70.01;100146.88;5094308;28;20398;-41
2023/06/05 01:45:13;;;;;;;;;;;;;;;18.47;69.98;100145.56;5093749;28;20397;-42
2023/06/05 01:47:39;;;;;;;;;;;;;;;18.48;69.29;100147.16;5094230;28;19920;-42
2023/06/05 01:50:05;;;;;;;;;;;;;;;17.94;71.13;100149.53;5093556;28;19912;-41
2023/06/05 01:52:31;;;;;;;;;;;;;;;17.86;70.99;100161.50;5093574;28;19918;-41
2023/06/05 01:54:59;;;;;;;;;;;;;;;17.87;71.39;100162.31;5093759;28;19908;-41
2023/06/05 01:57:26;;;;;;;;;;;;;;;17.83;70.58;100161.94;5093478;28;19965;-41
2023/06/05 01:59:53;;;;;;;;;;;;;;;17.89;70.73;100163.69;5093916;28;19911;-41
2023/06/05 02:02:18;;;;;;;;;;;;;;;17.67;70.55;100168.06;5093354;28;19922;-42
2023/06/05 02:04:46;;;;;;;;;;;;;;;17.51;71.97;100164.28;5093339;28;19994;-41
2023/06/05 02:07:12;;;;;;;;;;;;;;;17.90;70.58;100167.22;5093424;28;20024;-41
2023/06/05 02:09:38;;;;;;;;;;;;;;;18.33;68.78;100165.78;5093499;28;19912;-41
2023/06/05 02:12:03;;;;;;;;;;;;;;;18.59;67.25;100175.09;5093201;28;20400;-41
2023/06/05 02:14:29;;;;;;;;;;;;;;;17.98;68.26;100172.19;5093471;28;19943;-41
2023/06/05 02:16:56;;;;;;;;;;;;;;;17.79;70.10;100174.25;5093043;28;19916;-41
2023/06/05 02:19:21;;;;;;;;;;;;;;;18.22;68.65;100180.13;5093189;28;19912;-42
2023/06/05 02:21:47;;;;;;;;;;;;;;;18.19;69.43;100178.75;5093309;28;19919;-42
2023/06/05 02:24:12;;;;;;;;;;;;;;;18.35;68.69;100182.53;5093070;28;20024;-42
2023/06/05 02:26:37;;;;;;;;;;;;;;;18.54;67.95;100188.50;5093054;28;19997;-41
2023/06/05 02:29:03;;;;;;;;;;;;;;;18.53;67.84;100190.38;5092965;28;19920;-41
2023/06/05 02:31:31;;;;;;;;;;;;;;;18.49;67.83;100183.03;5093568;28;20282;-41
2023/06/05 02:33:56;;;;;;;;;;;;;;;17.99;69.14;100179.22;5092290;28;20274;-41
2023/06/05 02:36:22;;;;;;;;;;;;;;;18.24;68.67;100180.72;5092495;28;20626;-41
2023/06/05 02:38:49;;;;;;;;;;;;;;;18.42;67.84;100177.78;5092703;28;19912;-41
2023/06/05 02:41:15;;;;;;;;;;;;;;;18.31;67.64;100182.19;5093050;28;19994;-43
2023/06/05 02:43:40;;;;;;;;;;;;;;;18.29;67.24;100175.41;5093057;28;19989;-41
2023/06/05 02:46:06;;;;;;;;;;;;;;;17.93;68.81;100167.56;5092604;28;20281;-42
2023/06/05 02:48:31;;;;;;;;;;;;;;;17.90;69.41;100167.22;5092544;28;19919;-41
2023/06/05 02:50:56;;;;;;;;;;;;;;;17.82;69.82;100168.41;5092347;28;20333;-41
2023/06/05 02:53:22;;;;;;;;;;;;;;;17.98;69.40;100167.63;5092840;28;19923;-42
2023/06/05 02:55:47;;;;;;;;;;;;;;;18.11;68.62;100171.91;5092484;28;19935;-42
2023/06/05 02:58:13;;;;;;;;;;;;;;;18.10;68.21;100175.63;5092526;28;19912;-41
2023/06/05 03:00:38;;;;;;;;;;;;;;;18.22;67.61;100169.38;5092441;28;20002;-41
2023/06/05 03:03:06;;;;;;;;;;;;;;;18.16;67.75;100172.00;5092016;28;19916;-40
2023/06/05 03:05:32;;;;;;;;;;;;;;;17.90;68.25;100170.72;5092498;28;20020;-40
2023/06/05 03:07:57;;;;;;;;;;;;;;;17.90;68.07;100167.22;5092111;28;20386;-40
2023/06/05 03:10:22;;;;;;;;;;;;;;;18.14;67.08;100174.13;5092030;28;20003;-40
2023/06/05 03:12:48;;;;;;;;;;;;;;;18.44;66.03;100170.28;5091992;28;20011;-41
2023/06/05 03:15:15;;;;;;;;;;;;;;;18.53;65.59;100170.69;5092256;28;20437;-40
2023/06/05 03:17:41;;;;;;;;;;;;;;;17.78;67.06;100165.38;5092190;28;19919;-41
2023/06/05 03:20:09;;;;;;;;;;;;;;;17.30;69.13;100158.47;5092061;28;19945;-41
2023/06/05 03:22:34;;;;;;;;;;;;;;;16.97;70.44;100164.53;5091867;28;20229;-41
2023/06/05 03:24:59;;;;;;;;;;;;;;;16.85;70.89;100159.16;5092092;28;19923;-41
2023/06/05 03:27:25;;;;;;;;;;;;;;;17.19;70.16;100153.94;5091783;28;19912;-41
2023/06/05 03:29:50;;;;;;;;;;;;;;;17.08;69.66;100158.31;5092160;28;19926;-41
2023/06/05 03:32:15;;;;;;;;;;;;;;;17.31;68.76;100157.44;5091887;28;20406;-41
2023/06/05 03:34:42;;;;;;;;;;;;;;;17.49;68.32;100158.31;5091793;28;20032;-41
2023/06/05 03:37:08;;;;;;;;;;;;;;;17.28;68.32;100147.16;5091896;28;20007;-41
2023/06/05 03:39:33;;;;;;;;;;;;;;;16.87;70.51;100142.78;5091584;28;19998;-41
2023/06/05 03:41:58;;;;;;;;;;;;;;;16.90;70.16;100145.00;5091558;28;19930;-41
2023/06/05 03:44:24;;;;;;;;;;;;;;;16.75;71.13;100138.22;5091185;28;19916;-41
2023/06/05 03:46:49;;;;;;;;;;;;;;;17.25;70.00;100138.72;5091509;28;20286;-41
2023/06/05 03:49:14;;;;;;;;;;;;;;;17.28;69.60;100141.78;5091777;28;19919;-41
2023/06/05 03:51:44;;;;;;;;;;;;;;;17.39;68.55;100138.22;5091942;28;20296;-41
2023/06/05 03:54:10;;;;;;;;;;;;;;;17.39;68.79;100132.03;5090918;28;20475;-41
2023/06/05 03:56:38;;;;;;;;;;;;;;;17.85;66.73;100143.69;5090888;28;20008;-41
2023/06/05 03:59:27;;;;;;;;;;;;;;;17.97;65.34;100149.00;5091207;28;19923;-42
2023/06/05 04:01:50;;;;;;;;;;;;;;;18.09;64.88;100146.28;5090767;28;19916;-41
2023/06/05 04:04:15;;;;;;;;;;;;;;;18.36;64.24;100151.84;5090834;28;19917;-41
2023/06/05 04:06:41;;;;;;;;;;;;;;;18.00;65.16;100140.47;5091376;28;19923;-41
2023/06/05 04:09:12;;;;;;;;;;;;;;;18.10;64.32;100139.81;5090900;28;19912;-40
2023/06/05 04:11:39;;;;;;;;;;;;;;;17.82;65.23;100141.47;5090997;28;19912;-41
2023/06/05 04:14:04;;;;;;;;;;;;;;;17.70;65.90;100132.63;5090873;28;19916;-40
2023/06/05 04:16:30;;;;;;;;;;;;;;;17.97;65.83;100135.56;5090639;28;19912;-41
2023/06/05 04:18:56;;;;;;;;;;;;;;;18.59;65.55;100150.03;5090721;28;20030;-41
2023/06/05 04:21:21;;;;;;;;;;;;;;;19.19;62.49;100151.16;5091018;28;19912;-42
2023/06/05 04:23:46;;;;;;;;;;;;;;;19.65;61.12;100141.72;5090368;28;19965;-41
2023/06/05 04:26:13;;;;;;;;;;;;;;;20.05;59.09;100145.13;5090596;28;19916;-41
2023/06/05 04:28:39;;;;;;;;;;;;;;;20.04;58.40;100141.56;5090270;28;20303;-41
2023/06/05 04:31:04;;;;;;;;;;;;;;;19.47;60.10;100139.34;5089925;28;19935;-41
2023/06/05 04:33:29;;;;;;;;;;;;;;;19.07;60.44;100151.28;5089758;28;19912;-40
2023/06/05 04:35:55;;;;;;;;;;;;;;;18.80;61.75;100140.38;5089587;28;19912;-40
2023/06/05 04:38:21;;;;;;;;;;;;;;;19.01;61.25;100152.28;5088584;28;19912;-41
2023/06/05 04:40:48;;;;;;;;;;;;;;;18.82;62.53;100166.03;5089032;28;19920;-41
2023/06/05 04:43:13;;;;;;;;;;;;;;;18.44;62.88;100172.16;5087559;28;19920;-41
2023/06/05 04:45:38;;;;;;;;;;;;;;;18.79;62.33;100174.59;5088048;28;20372;-41
2023/06/05 04:48:04;;;;;;;;;;;;;;;19.11;61.82;100169.44;5088305;28;20010;-40
2023/06/05 04:50:29;;;;;;;;;;;;;;;19.30;60.76;100175.31;5088577;28;20332;-41
2023/06/05 04:52:55;;;;;;;;;;;;;;;19.16;60.92;100175.94;5088618;28;19916;-43
2023/06/05 04:55:20;;;;;;;;;;;;;;;19.37;60.18;100169.72;5088852;28;20680;-41
2023/06/05 04:57:48;;;;;;;;;;;;;;;19.24;60.94;100179.00;5092611;28;19999;-40
2023/06/05 05:00:16;;;;;;;;;;;;;;;19.43;60.58;100173.31;5094603;28;19916;-40
2023/06/05 05:02:41;;;;;;;;;;;;;;;19.84;60.38;100173.81;5093545;28;19916;-41
2023/06/05 05:05:08;;;;;;;;;;;;;;;20.14;58.61;100170.56;5093564;28;19912;-40
2023/06/05 05:07:34;;;;;;;;;;;;;;;20.38;57.99;100183.75;5093718;28;19958;-41
2023/06/05 05:09:59;;;;;;;;;;;;;;;20.43;58.21;100187.31;5093678;28;19915;-40
2023/06/05 05:12:24;;;;;;;;;;;;;;;20.24;59.67;100188.78;5093522;28;19954;-41
2023/06/05 05:14:50;;;;;;;;;;;;;;;20.58;57.72;100193.91;5093492;28;19930;-41
2023/06/05 05:17:19;;;;;;;;;;;;;;;20.82;56.96;100188.97;5092328;28;19912;-41
2023/06/05 05:19:44;;;;;;;;;;;;;;;20.94;56.65;100195.00;5093287;28;19912;-40
2023/06/05 05:22:09;;;;;;;;;;;;;;;21.11;55.89;100197.53;5072437;28;19912;-41
2023/06/05 05:24:35;;;;;;;;;;;;;;;21.28;55.53;100202.75;5072779;28;20034;-41
2023/06/05 05:27:00;;;;;;;;;;;;;;;21.15;56.86;100205.94;5081079;28;20237;-41
2023/06/05 05:29:26;;;;;;;;;;;;;;;21.55;56.18;100202.66;5092882;28;19923;-41
2023/06/05 05:31:52;;;;;;;;;;;;;;;21.95;55.30;100203.00;5093176;28;19923;-41
2023/06/05 05:34:18;;;;;;;;;;;;;;;21.88;54.81;100200.56;5092935;28;19920;-42
2023/06/05 05:36:43;;;;;;;;;;;;;;;22.10;54.22;100208.47;5088396;28;19912;-40
2023/06/05 05:39:08;;;;;;;;;;;;;;;22.13;53.92;100209.84;5088346;28;20050;-40
2023/06/05 05:41:34;;;;;;;;;;;;;;;22.29;53.52;100210.69;5093495;28;19912;-41
2023/06/05 05:44:00;;;;;;;;;;;;;;;22.47;52.57;100210.16;5092517;28;20499;-41
2023/06/05 05:46:25;;;;;;;;;;;;;;;22.62;52.47;100210.16;5092357;28;20003;-41
2023/06/05 05:48:51;;;;;;;;;;;;;;;21.91;53.17;100212.75;5092979;28;20356;-42
2023/06/05 05:51:17;;;;;;;;;;;;;;;20.08;58.25;100221.03;5086937;28;19916;-41
2023/06/05 05:53:42;;;;;;;;;;;;;;;20.64;58.31;100219.97;5092477;28;19934;-41
2023/06/05 05:56:07;;;;;;;;;;;;;;;21.06;56.64;100211.03;5092541;28;20208;-41
2023/06/05 05:58:32;;;;;;;;;;;;;;;21.26;55.54;100210.31;5091910;28;20281;-41
2023/06/05 06:00:59;;;;;;;;;;;;;;;20.85;57.43;100213.63;5090927;28;20346;-41
2023/06/05 06:03:37;;;;;;;;;;;;;;;21.22;57.80;100217.34;5091461;28;20380;-41
2023/06/05 06:06:06;;;;;;;;;;;;;;;21.71;55.76;100214.34;5089224;28;19916;-41
2023/06/05 06:08:33;;;;;;;;;;;;;;;22.04;54.55;100212.25;5088357;28;19943;-41
2023/06/05 06:10:58;;;;;;;;;;;;;;;22.03;54.60;100207.94;5091701;28;20007;-41
2023/06/05 06:13:23;;;;;;;;;;;;;;;21.92;54.27;100207.09;5091469;28;19995;-41
2023/06/05 06:15:49;;;;;;;;;;;;;;;22.24;54.16;100209.56;5091822;28;20015;-41
2023/06/05 06:18:14;;;;;;;;;;;;;;;22.04;54.34;100206.81;5091759;28;19919;-44
2023/06/05 06:20:39;;;;;;;;;;;;;;;21.83;54.81;100190.53;5090325;28;19944;-42
2023/06/05 06:23:05;;;;;;;;;;;;;;;21.89;55.34;100202.19;5090633;28;19922;-40
2023/06/05 06:25:31;;;;;;;;;;;;;;;22.18;54.74;100202.53;5090532;28;19913;-41
2023/06/05 06:27:57;;;;;;;;;;;;;;;22.52;53.22;100204.72;5089582;28;19919;-44
2023/06/05 06:30:22;;;;;;;;;;;;;;;22.71;53.43;100204.16;5090033;28;19924;-41
2023/06/05 06:32:48;;;;;;;;;;;;;;;22.59;53.15;100201.75;5089657;28;20319;-42
2023/06/05 06:35:13;;;;;;;;;;;;;;;22.75;53.28;100206.09;5089855;28;20308;-42
2023/06/05 06:37:42;;;;;;;;;;;;;;;23.22;51.74;100204.09;5090290;28;19916;-42
2023/06/05 06:40:10;;;;;;;;;;;;;;;23.74;50.58;100205.53;5090204;28;19916;-42
2023/06/05 06:42:36;;;;;;;;;;;;;;;23.90;50.76;100200.84;5090185;28;20019;-41
2023/06/05 06:45:03;;;;;;;;;;;;;;;24.32;50.62;100199.44;5090695;28;19991;-42
2023/06/05 06:47:28;;;;;;;;;;;;;;;24.78;49.37;100199.06;5090920;28;19968;-41
2023/06/05 06:49:54;;;;;;;;;;;;;;;25.04;47.36;100198.81;5090878;28;20301;-41
2023/06/05 06:52:20;;;;;;;;;;;;;;;25.39;46.71;100204.16;5090794;28;19920;-41
2023/06/05 06:54:45;;;;;;;;;;;;;;;25.77;46.58;100206.94;5090466;28;20386;-41
2023/06/05 06:57:11;;;;;;;;;;;;;;;25.83;46.31;100203.84;5090282;28;19918;-42
2023/06/05 06:59:37;;;;;;;;;;;;;;;26.21;45.73;100197.59;5090430;28;20394;-40
2023/06/05 07:02:11;;;;;;;;;;;;;;;26.42;44.80;100198.09;5091249;28;20002;-41
2023/06/05 07:04:36;;;;;;;;;;;;;;;26.57;43.70;100195.09;5090998;28;19969;-41
2023/06/05 07:07:02;;;;;;;;;;;;;;;26.74;43.48;100196.47;5091064;28;19929;-42
2023/06/05 07:09:27;;;;;;;;;;;;;;;26.74;43.74;100193.75;5091169;28;19916;-42
2023/06/05 07:11:53;;;;;;;;;;;;;;;26.77;43.65;100185.78;5090954;28;19912;-42
2023/06/05 07:14:19;;;;;;;;;;;;;;;26.77;43.55;100190.41;5091579;28;19946;-41
2023/06/05 07:16:44;;;;;;;;;;;;;;;26.96;43.92;100184.88;5091363;28;19935;-41
2023/06/05 07:19:09;;;;;;;;;;;;;;;26.36;46.35;100189.16;5090683;28;20326;-42
2023/06/05 07:21:37;;;;;;;;;;;;;;;26.66;45.97;100184.34;5091408;28;19918;-42
2023/06/05 07:24:04;;;;;;;;;;;;;;;26.21;47.02;100183.97;5090654;28;19916;-41
2023/06/05 07:26:29;;;;;;;;;;;;;;;26.18;47.42;100185.38;5090631;28;20007;-41
2023/06/05 07:28:54;;;;;;;;;;;;;;;26.57;46.51;100180.63;5088762;28;19955;-42
2023/06/05 07:31:21;;;;;;;;;;;;;;;26.09;47.31;100178.97;5090084;28;19955;-41
2023/06/05 07:33:47;;;;;;;;;;;;;;;26.67;46.75;100181.31;5091023;28;19912;-41
2023/06/05 07:36:13;;;;;;;;;;;;;;;26.83;46.56;100181.84;5090742;28;19912;-42
2023/06/05 07:38:39;;;;;;;;;;;;;;;26.69;46.26;100187.28;5090883;28;20388;-41
2023/06/05 07:41:05;;;;;;;;;;;;;;;26.40;46.85;100190.19;5091553;28;19920;-41
2023/06/05 07:43:31;;;;;;;;;;;;;;;26.53;47.03;100191.34;5091227;28;20320;-41
2023/06/05 07:45:56;;;;;;;;;;;;;;;26.78;45.99;100190.09;5090426;28;19912;-41
2023/06/05 07:48:22;;;;;;;;;;;;;;;27.14;45.55;100192.16;5090510;28;20018;-41
2023/06/05 07:50:47;;;;;;;;;;;;;;;27.60;43.88;100196.69;5090563;28;19912;-41
2023/06/05 07:53:12;;;;;;;;;;;;;;;27.58;43.85;100195.41;5090692;28;19918;-41
2023/06/05 07:55:37;;;;;;;;;;;;;;;27.29;44.46;100193.81;5090844;28;19981;-41
2023/06/05 07:58:03;;;;;;;;;;;;;;;27.06;44.88;100187.41;5090949;28;20384;-41
2023/06/05 08:00:28;;;;;;;;;;;;;;;27.83;44.19;100191.28;5090651;28;20025;-42
2023/06/05 08:02:54;;;;;;;;;;;;;;;28.43;41.90;100185.50;5090511;28;19916;-42
2023/06/05 08:05:19;;;;;;;;;;;;;;;28.51;42.27;100189.41;5090443;28;20102;-42
2023/06/05 08:07:45;;;;;;;;;;;;;;;28.96;42.13;100183.03;5090570;28;19973;-42
2023/06/05 08:10:11;;;;;;;;;;;;;;;28.60;41.00;100189.50;5090707;28;19923;-42
2023/06/05 08:12:36;;;;;;;;;;;;;;;28.73;40.79;100183.13;5090671;28;19912;-43
2023/06/05 08:15:01;;;;;;;;;;;;;;;28.86;41.94;100175.91;5090177;28;20299;-42
2023/06/05 08:17:30;;;;;;;;;;;;;;;28.99;41.40;100179.66;5090350;28;20414;-42
2023/06/05 08:19:55;;;;;;;;;;;;;;;29.69;40.79;100168.91;5090625;28;19935;-41
2023/06/05 08:22:22;;;;;;;;;;;;;;;29.94;39.79;100167.31;5090373;28;20368;-41
2023/06/05 08:24:50;;;;;;;;;;;;;;;29.87;39.42;100165.06;5090567;28;19965;-41
2023/06/05 08:27:16;;;;;;;;;;;;;;;28.63;41.90;100166.94;5090119;28;19965;-42
2023/06/05 08:29:41;;;;;;;;;;;;;;;28.26;42.24;100167.03;5090233;28;20491;-41
2023/06/05 08:32:07;;;;;;;;;;;;;;;28.12;43.21;100157.28;5092573;28;20003;-41
2023/06/05 08:34:32;;;;;;;;;;;;;;;28.48;41.06;100168.13;5094272;28;19912;-41
2023/06/05 08:37:00;;;;;;;;;;;;;;;28.60;40.89;100160.19;5094238;28;19912;-41
2023/06/05 08:39:31;;;;;;;;;;;;;;;28.95;39.90;100162.25;5091916;28;19939;-41
2023/06/05 08:41:59;;;;;;;;;;;;;;;28.33;42.88;100160.31;5093932;28;19912;-42
2023/06/05 08:44:25;;;;;;;;;;;;;;;28.94;41.81;100142.28;5090791;28;20320;-42
2023/06/05 08:46:52;;;;;;;;;;;;;;;29.18;41.49;100141.88;5093950;28;19912;-43
2023/06/05 08:49:21;;;;;;;;;;;;;;;29.15;40.33;100139.81;5094090;28;19934;-42
2023/06/05 08:51:49;;;;;;;;;;;;;;;29.90;40.86;100131.50;5092005;28;19965;-41
2023/06/05 08:54:16;;;;;;;;;;;;;;;30.67;38.79;100131.66;5093813;28;19947;-41
2023/06/05 08:56:41;;;;;;;;;;;;;;;30.86;38.69;100141.44;5094276;28;19964;-42
2023/06/05 08:59:07;;;;;;;;;;;;;;;30.12;38.46;100149.72;5094331;28;20440;-41
2023/06/05 09:01:32;;;;;;;;;;;;;;;28.75;41.02;100147.19;5091302;28;19916;-41
2023/06/05 09:03:58;;;;;;;;;;;;;;;29.58;39.85;100147.28;5093844;28;19923;-41
2023/06/05 09:06:23;;;;;;;;;;;;;;;28.94;41.68;100136.81;5093840;28;19912;-42
2023/06/05 09:08:48;;;;;;;;;;;;;;;29.91;38.54;100137.78;5094301;28;19919;-41
2023/06/05 09:11:19;;;;;;;;;;;;;;;27.19;43.38;100151.09;5093986;28;19912;-43
2023/06/05 09:13:48;;;;;;;;;;;;;;;27.64;43.13;100125.81;5092309;28;20244;-42
2023/06/05 09:16:13;;;;;;;;;;;;;;;28.74;41.70;100129.97;5093764;28;19970;-43
2023/06/05 09:18:55;;;;;;;;;;;;;;;29.54;39.80;100131.81;5094433;28;19947;-41
2023/06/05 09:21:21;;;;;;;;;;;;;;;29.64;39.19;100125.97;5093748;28;19960;-42
2023/06/05 09:23:46;;;;;;;;;;;;;;;29.79;39.30;100133.75;5093899;28;19955;-44
2023/06/05 09:26:13;;;;;;;;;;;;;;;29.57;38.64;100129.22;5093783;28;19912;-43
2023/06/05 09:29:02;;;;;;;;;;;;;;;28.96;40.00;100131.81;5093667;28;19991;-42
2023/06/05 09:31:39;;;;;;;;;;;;;;;28.83;40.30;100121.78;5093683;28;19975;-41
2023/06/05 09:34:05;;;;;;;;;;;;;;;27.83;42.91;100131.13;5092293;28;19912;-41
2023/06/05 09:36:34;;;;;;;;;;;;;;;28.91;40.93;100117.47;5092227;28;19918;-42
2023/06/05 09:39:13;;;;;;;;;;;;;;;29.37;39.36;100114.19;5091765;28;20360;-42
2023/06/05 09:41:41;;;;;;;;;;;;;;;29.40;39.18;100107.28;5091998;28;19951;-42
2023/06/05 09:44:07;;;;;;;;;;;;;;;29.18;40.56;100108.22;5091835;28;20394;-42
2023/06/05 09:46:32;;;;;;;;;;;;;;;29.16;40.24;100103.03;5091518;28;19912;-41
2023/06/05 09:48:59;;;;;;;;;;;;;;;27.94;42.25;100102.44;5091880;28;19958;-42
2023/06/05 09:51:24;;;;;;;;;;;;;;;27.27;43.06;100116.81;5092461;28;20032;-42
2023/06/05 09:53:50;;;;;;;;;;;;;;;27.39;41.81;100106.16;5093137;28;19916;-42
2023/06/05 09:56:16;;;;;;;;;;;;;;;28.07;41.77;100079.69;5093394;28;20365;-43
2023/06/05 09:58:49;;;;;;;;;;;;;;;28.80;41.21;100095.81;5092875;28;19923;-42
2023/06/05 10:01:16;;;;;;;;;;;;;;;29.38;40.06;100093.09;5091897;28;20272;-43
2023/06/05 10:03:44;;;;;;;;;;;;;;;28.79;39.86;100098.91;5092798;28;19941;-43
2023/06/05 10:06:09;;;;;;;;;;;;;;;28.36;41.10;100085.81;5092967;28;19916;-41
2023/06/05 10:08:35;;;;;;;;;;;;;;;28.56;39.49;100084.47;5092804;28;19991;-43
2023/06/05 10:11:01;;;;;;;;;;;;;;;29.28;39.00;100085.97;5093007;28;19916;-41
2023/06/05 10:13:26;;;;;;;;;;;;;;;29.90;39.02;100078.59;5092817;28;19985;-43
2023/06/05 10:15:52;;;;;;;;;;;;;;;30.10;38.46;100074.34;5092534;28;19912;-42
2023/06/05 10:18:17;;;;;;;;;;;;;;;29.12;39.22;100068.38;5092878;28;19919;-43
2023/06/05 10:20:43;;;;;;;;;;;;;;;29.11;38.37;100064.84;5092377;28;19923;-42
2023/06/05 10:23:08;;;;;;;;;;;;;;;28.52;39.67;100084.31;5092916;28;19916;-43
2023/06/05 10:25:34;;;;;;;;;;;;;;;27.28;41.56;100074.72;5092238;28;19955;-41
2023/06/05 10:28:00;;;;;;;;;;;;;;;27.56;40.28;100078.19;5091746;28;19920;-43
2023/06/05 10:30:31;;;;;;;;;;;;;;;28.01;40.32;100064.53;5091341;28;19924;-42
2023/06/05 10:33:17;;;;;;;;;;;;;;;28.44;39.39;100063.13;5092298;28;20120;-42
2023/06/05 10:35:51;;;;;;;;;;;;;;;28.76;38.62;100063.94;5092157;28;19923;-43
2023/06/05 10:38:27;;;;;;;;;;;;;;;28.49;38.80;100057.53;5091891;28;19963;-43
2023/06/05 10:40:52;;;;;;;;;;;;;;;28.61;38.81;100065.16;5092073;28;19912;-43
2023/06/05 10:43:28;;;;;;;;;;;;;;;28.28;38.82;100060.81;5092322;28;19922;-43
2023/06/05 10:45:54;;;;;;;;;;;;;;;28.21;39.04;100051.44;5092331;28;19973;-43
2023/06/05 10:48:19;;;;;;;;;;;;;;;27.05;40.69;100062.88;5092043;28;20521;-43
2023/06/05 10:50:44;;;;;;;;;;;;;;;27.73;39.29;100052.09;5092153;28;20314;-42
2023/06/05 10:53:28;;;;;;;;;;;;;;;29.10;37.55;100044.03;5092187;28;20014;-42
2023/06/05 10:55:54;;;;;;;;;;;;;;;29.01;37.29;100054.97;5091319;28;19920;-42
2023/06/05 10:58:22;;;;;;;;;;;;;;;28.95;37.70;100036.28;5092209;28;19924;-43
2023/06/05 11:01:23;;;;;;;;;;;;;;;29.71;36.64;100035.03;5092000;28;19935;-42
2023/06/05 11:03:57;;;;;;;;;;;;;;;30.10;36.17;100034.00;5068694;28;19923;-44
2023/06/05 11:06:23;;;;;;;;;;;;;;;30.12;35.34;100033.66;5088324;28;19912;-41
2023/06/05 11:09:08;;;;;;;;;;;;;;;30.44;35.28;100023.25;5091530;28;19912;-43
2023/06/05 11:11:53;;;;;;;;;;;;;;;30.29;36.75;100030.88;5091567;28;19912;-42
2023/06/05 11:14:18;;;;;;;;;;;;;;;30.80;34.65;100019.97;5091472;28;20282;-42
2023/06/05 11:16:43;;;;;;;;;;;;;;;29.83;36.38;100029.69;5091504;28;19915;-44
2023/06/05 11:19:15;;;;;;;;;;;;;;;28.35;38.75;100027.53;5091559;28;19992;-42
2023/06/05 11:21:58;;;;;;;;;;;;;;;28.79;37.21;100020.31;5091441;28;19927;-42
2023/06/05 11:24:23;;;;;;;;;;;;;;;29.01;37.61;100029.50;5089871;28;20291;-42
2023/06/05 11:26:49;;;;;;;;;;;;;;;29.49;36.21;100011.34;5091066;28;19916;-42
2023/06/05 11:29:15;;;;;;;;;;;;;;;29.37;36.73;100021.00;5091214;28;19917;-41
2023/06/05 11:31:42;;;;;;;;;;;;;;;28.98;37.62;100014.53;5091280;28;19927;-42
2023/06/05 11:34:11;;;;;;;;;;;;;;;29.29;36.98;100012.81;5090963;28;19916;-42
2023/06/05 11:36:37;;;;;;;;;;;;;;;27.99;37.83;100023.03;5091099;28;19992;-41
2023/06/05 11:39:03;;;;;;;;;;;;;;;28.81;36.96;100011.78;5090454;28;19947;-43
2023/06/05 11:41:29;;;;;;;;;;;;;;;29.60;35.39;100007.94;5090551;28;19970;-42
2023/06/05 11:43:56;;;;;;;;;;;;;;;29.97;35.56;100016.59;5090873;28;19916;-42
2023/06/05 11:46:35;;;;;;;;;;;;;;;30.21;34.16;100012.47;5091029;28;19918;-41
2023/06/05 11:49:00;;;;;;;;;;;;;;;29.75;34.88;100009.41;5091090;28;19916;-42
2023/06/05 11:51:31;;;;;;;;;;;;;;;30.08;34.11;100006.06;5090929;28;19994;-42
2023/06/05 11:53:59;;;;;;;;;;;;;;;30.19;33.34;99992.81;5090938;28;20214;-42
2023/06/05 11:56:27;;;;;;;;;;;;;;;30.06;33.47;100000.09;5090805;28;19919;-42
2023/06/05 11:58:52;;;;;;;;;;;;;;;30.31;32.66;99990.19;5090866;28;20352;-42
2023/06/05 12:01:21;;;;;;;;;;;;;;;30.18;32.61;99982.97;5090734;28;19916;-41
2023/06/05 12:03:47;;;;;;;;;;;;;;;29.54;33.22;100000.22;5091480;28;20384;-43
2023/06/05 12:06:13;;;;;;;;;;;;;;;29.75;33.27;99983.91;5091547;28;19961;-43
2023/06/05 12:08:39;;;;;;;;;;;;;;;29.44;32.76;99993.94;5091632;28;20048;-42
2023/06/05 12:11:25;;;;;;;;;;;;;;;30.01;31.94;100001.09;5091205;28;19912;-42
2023/06/05 12:13:54;;;;;;;;;;;;;;;30.32;31.86;99994.53;5088844;28;19923;-42
2023/06/05 12:16:40;;;;;;;;;;;;;;;29.51;32.80;99981.66;5089117;28;19912;-41
2023/06/05 12:19:16;;;;;;;;;;;;;;;29.80;32.34;99983.75;5089005;28;19911;-42
2023/06/05 12:21:42;;;;;;;;;;;;;;;30.95;31.57;99985.66;5088707;28;20294;-43
2023/06/05 12:24:08;;;;;;;;;;;;;;;30.18;32.17;99997.50;5089212;28;19921;-44
2023/06/05 12:26:53;;;;;;;;;;;;;;;30.12;32.43;99993.31;5088875;28;20368;-42
2023/06/05 12:29:39;;;;;;;;;;;;;;;29.38;33.08;99983.47;5088856;28;20053;-42
2023/06/05 12:32:19;;;;;;;;;;;;;;;29.58;32.63;99995.69;5088679;28;20380;-43
2023/06/05 12:34:46;;;;;;;;;;;;;;;29.58;32.91;99987.47;5088654;28;19912;-43
2023/06/05 12:37:21;;;;;;;;;;;;;;;28.72;33.15;99984.38;5090500;28;20007;-42
2023/06/05 12:39:46;;;;;;;;;;;;;;;29.32;33.14;99980.09;5090526;28;19923;-42